createdAt,value
2018-05-27T00:01:52.066Z,9.53
2018-05-27T00:04:20.171Z,8.57
2018-05-27T00:06:48.297Z,9.37
2018-05-27T00:09:16.436Z,9.50
2018-05-27T00:11:44.553Z,9.37
2018-05-27T00:14:12.681Z,9.47
2018-05-27T00:16:40.808Z,9.10
2018-05-27T00:19:08.925Z,9.03
2018-05-27T00:21:37.053Z,9.13
2018-05-27T00:24:05.163Z,9.50
2018-05-27T00:26:33.273Z,9.37
2018-05-27T00:29:01.405Z,8.80
2018-05-27T00:31:29.520Z,9.00
2018-05-27T00:33:57.647Z,9.10
2018-05-27T00:36:25.763Z,9.20
2018-05-27T00:38:53.885Z,9.17
2018-05-27T00:41:22.036Z,9.10
2018-05-27T00:43:50.168Z,9.27
2018-05-27T00:46:18.275Z,8.77
2018-05-27T00:48:46.405Z,9.90
2018-05-27T00:51:14.532Z,9.53
2018-05-27T00:53:54.381Z,9.83
2018-05-27T00:56:22.490Z,9.70
2018-05-27T00:58:50.630Z,9.60
2018-05-27T01:01:18.779Z,10.00
2018-05-27T01:03:46.913Z,9.43
2018-05-27T01:06:15.831Z,10.27
2018-05-27T01:08:43.946Z,9.57
2018-05-27T01:11:12.106Z,9.67
2018-05-27T01:13:40.224Z,10.70
2018-05-27T01:16:08.369Z,10.40
2018-05-27T01:18:36.528Z,10.37
2018-05-27T01:21:04.649Z,10.20
2018-05-27T01:23:32.799Z,9.93
2018-05-27T01:26:00.915Z,10.07
2018-05-27T01:28:29.031Z,10.57
2018-05-27T01:30:57.316Z,9.43
2018-05-27T01:33:25.445Z,9.80
2018-05-27T01:35:53.584Z,10.50
2018-05-27T01:38:21.716Z,10.63
2018-05-27T01:40:49.832Z,10.50
2018-05-27T01:43:17.969Z,10.83
2018-05-27T01:45:46.099Z,11.10
2018-05-27T01:48:14.233Z,10.97
2018-05-27T01:50:42.376Z,11.10
2018-05-27T01:53:10.547Z,10.83
2018-05-27T01:55:38.681Z,10.40
2018-05-27T01:58:06.823Z,10.70
2018-05-27T02:00:34.942Z,11.13
2018-05-27T02:03:03.091Z,11.00
2018-05-27T02:05:31.198Z,10.83
2018-05-27T02:07:59.334Z,10.53
2018-05-27T02:10:27.451Z,11.40
2018-05-27T02:12:55.578Z,10.47
2018-05-27T02:15:23.705Z,10.57
2018-05-27T02:17:51.819Z,11.07
2018-05-27T02:20:19.942Z,10.60
2018-05-27T02:22:48.052Z,10.93
2018-05-27T02:25:16.184Z,11.07
2018-05-27T02:27:44.313Z,11.17
2018-05-27T02:30:12.459Z,10.70
2018-05-27T02:32:40.596Z,11.10
2018-05-27T02:35:08.725Z,10.80
2018-05-27T02:37:36.850Z,10.60
2018-05-27T02:40:04.977Z,11.27
2018-05-27T02:42:33.096Z,11.37
2018-05-27T02:45:01.240Z,11.70
2018-05-27T02:47:29.359Z,10.13
2018-05-27T02:49:57.479Z,11.33
2018-05-27T02:52:25.596Z,11.43
2018-05-27T02:54:53.725Z,10.67
2018-05-27T02:57:21.872Z,10.80
2018-05-27T02:59:50.020Z,10.97
2018-05-27T03:02:18.154Z,11.17
2018-05-27T03:04:46.285Z,10.80
2018-05-27T03:07:14.449Z,10.97
2018-05-27T03:09:42.604Z,11.70
2018-05-27T03:12:10.751Z,11.50
2018-05-27T03:14:38.878Z,10.53
2018-05-27T03:17:07.022Z,11.47
2018-05-27T03:19:35.159Z,10.97
2018-05-27T03:22:03.302Z,11.23
2018-05-27T03:24:31.429Z,11.23
2018-05-27T03:26:59.571Z,11.03
2018-05-27T03:29:27.699Z,11.43
2018-05-27T03:31:56.017Z,11.53
2018-05-27T03:34:24.180Z,10.93
2018-05-27T03:36:52.402Z,10.73
2018-05-27T03:39:20.826Z,11.57
2018-05-27T03:41:48.939Z,11.50
2018-05-27T03:44:17.074Z,11.40
2018-05-27T03:46:45.229Z,11.60
2018-05-27T03:49:13.334Z,11.60
2018-05-27T03:51:41.481Z,11.87
2018-05-27T03:54:09.636Z,11.20
2018-05-27T03:56:37.746Z,11.30
2018-05-27T03:59:06.706Z,11.93
2018-05-27T04:01:34.855Z,11.90
2018-05-27T04:04:14.701Z,12.17
2018-05-27T04:06:54.684Z,11.50
2018-05-27T04:09:22.792Z,11.90
2018-05-27T04:11:50.937Z,12.07
2018-05-27T04:14:19.069Z,11.73
2018-05-27T04:16:47.225Z,11.90
2018-05-27T04:19:15.338Z,12.10
2018-05-27T04:21:43.804Z,13.23
2018-05-27T04:24:11.965Z,12.73
2018-05-27T04:26:40.074Z,11.83
2018-05-27T04:29:08.369Z,11.57
2018-05-27T04:31:36.497Z,12.30
2018-05-27T04:34:04.611Z,12.50
2018-05-27T04:36:32.787Z,12.90
2018-05-27T04:39:00.906Z,12.57
2018-05-27T04:41:29.016Z,13.03
2018-05-27T04:43:57.153Z,12.87
2018-05-27T04:46:25.292Z,12.80
2018-05-27T04:48:53.512Z,12.87
2018-05-27T04:51:21.654Z,12.60
2018-05-27T04:53:49.848Z,14.03
2018-05-27T04:56:18.259Z,12.27
2018-05-27T04:58:46.394Z,13.37
2018-05-27T05:01:14.549Z,12.80
2018-05-27T05:03:42.669Z,12.83
2018-05-27T05:06:10.803Z,11.90
2018-05-27T05:08:38.928Z,12.80
2018-05-27T05:11:07.062Z,12.73
2018-05-27T05:13:35.216Z,12.20
2018-05-27T05:16:06.577Z,13.27
2018-05-27T05:18:34.718Z,12.40
2018-05-27T05:21:02.848Z,12.77
2018-05-27T05:23:31.003Z,13.07
2018-05-27T05:25:59.131Z,13.57
2018-05-27T05:28:27.255Z,13.17
2018-05-27T05:30:55.394Z,12.60
2018-05-27T05:33:23.535Z,12.53
2018-05-27T05:35:51.657Z,12.07
2018-05-27T05:38:19.775Z,13.13
2018-05-27T05:40:47.931Z,13.00
2018-05-27T05:43:16.073Z,11.83
2018-05-27T05:45:44.197Z,12.70
2018-05-27T05:48:12.302Z,13.40
2018-05-27T05:50:40.449Z,13.00
2018-05-27T05:53:08.588Z,12.33
2018-05-27T05:55:36.743Z,12.10
2018-05-27T05:58:04.906Z,13.20
2018-05-27T06:00:39.251Z,12.00
2018-05-27T06:03:07.396Z,12.43
2018-05-27T06:05:35.531Z,11.70
2018-05-27T06:08:03.668Z,11.70
2018-05-27T06:10:31.787Z,12.50
2018-05-27T06:12:59.920Z,12.07
2018-05-27T06:15:28.047Z,12.33
2018-05-27T06:17:56.150Z,12.40
2018-05-27T06:20:24.289Z,12.27
2018-05-27T06:22:52.532Z,12.17
2018-05-27T06:25:20.667Z,11.57
2018-05-27T06:27:48.780Z,11.40
2018-05-27T06:30:16.909Z,11.67
2018-05-27T06:32:45.052Z,11.50
2018-05-27T06:35:13.186Z,10.83
2018-05-27T06:37:41.311Z,10.90
2018-05-27T06:40:09.565Z,10.73
2018-05-27T06:42:37.928Z,11.20
2018-05-27T06:45:06.061Z,11.57
2018-05-27T06:47:34.197Z,11.63
2018-05-27T06:50:02.359Z,11.23
2018-05-27T06:52:30.481Z,10.77
2018-05-27T06:54:58.614Z,10.93
2018-05-27T06:57:26.741Z,11.20
2018-05-27T06:59:54.859Z,11.10
2018-05-27T07:02:22.984Z,12.20
2018-05-27T07:04:51.215Z,11.30
2018-05-27T07:07:19.249Z,11.73
2018-05-27T07:09:47.372Z,11.37
2018-05-27T07:12:15.519Z,11.40
2018-05-27T07:14:43.647Z,11.00
2018-05-27T07:17:11.774Z,10.70
2018-05-27T07:19:39.915Z,11.37
2018-05-27T07:22:08.048Z,11.10
2018-05-27T07:24:39.097Z,11.77
2018-05-27T07:27:07.230Z,11.63
2018-05-27T07:29:35.357Z,11.23
2018-05-27T07:32:03.501Z,11.77
2018-05-27T07:34:31.657Z,10.93
2018-05-27T07:36:59.795Z,11.17
2018-05-27T07:39:27.943Z,10.83
2018-05-27T07:41:56.083Z,11.40
2018-05-27T07:44:24.359Z,10.97
2018-05-27T07:46:52.593Z,11.47
2018-05-27T07:49:20.765Z,10.60
2018-05-27T07:51:48.898Z,11.50
2018-05-27T07:54:17.021Z,11.00
2018-05-27T07:56:45.149Z,10.83
2018-05-27T07:59:13.268Z,10.77
2018-05-27T08:01:41.383Z,10.33
2018-05-27T08:04:13.249Z,10.97
2018-05-27T08:06:41.377Z,10.90
2018-05-27T08:09:09.504Z,11.30
2018-05-27T08:11:37.652Z,10.30
2018-05-27T08:14:05.780Z,10.73
2018-05-27T08:16:34.000Z,9.97
2018-05-27T08:19:02.145Z,10.60
2018-05-27T08:21:30.259Z,10.80
2018-05-27T08:23:58.394Z,10.13
2018-05-27T08:26:26.849Z,10.93
2018-05-27T08:28:55.009Z,11.20
2018-05-27T08:31:23.152Z,10.60
2018-05-27T08:33:51.274Z,11.53
2018-05-27T08:36:19.422Z,10.43
2018-05-27T08:38:47.563Z,10.47
2018-05-27T08:41:15.717Z,10.77
2018-05-27T08:43:43.835Z,11.20
2018-05-27T08:46:11.969Z,10.13
2018-05-27T08:48:40.092Z,9.93
2018-05-27T08:51:08.215Z,9.93
2018-05-27T08:53:36.359Z,10.40
2018-05-27T08:56:04.505Z,10.33
2018-05-27T08:58:32.669Z,10.70
2018-05-27T09:01:00.815Z,9.77
2018-05-27T09:03:28.940Z,10.87
2018-05-27T09:05:57.082Z,9.53
2018-05-27T09:08:25.213Z,10.00
2018-05-27T09:10:53.343Z,10.23
2018-05-27T09:13:21.477Z,10.53
2018-05-27T09:15:49.609Z,9.53
2018-05-27T09:18:17.739Z,10.07
2018-05-27T09:20:45.852Z,9.80
2018-05-27T09:23:14.288Z,9.97
2018-05-27T09:25:42.780Z,10.53
2018-05-27T09:28:10.883Z,10.13
2018-05-27T09:30:39.009Z,9.60
2018-05-27T09:33:07.156Z,9.07
2018-05-27T09:35:35.267Z,9.57
2018-05-27T09:38:03.659Z,9.60
2018-05-27T09:40:31.790Z,8.67
2018-05-27T09:42:59.919Z,9.47
2018-05-27T09:45:28.423Z,9.43
2018-05-27T09:47:56.528Z,9.13
2018-05-27T09:50:24.690Z,9.30
2018-05-27T09:52:52.808Z,9.23
2018-05-27T09:55:20.937Z,10.00
2018-05-27T09:57:49.079Z,9.33
2018-05-27T10:00:17.197Z,9.73
2018-05-27T10:02:45.340Z,9.00
2018-05-27T10:05:13.461Z,9.30
2018-05-27T10:07:41.590Z,8.27
2018-05-27T10:10:09.714Z,9.27
2018-05-27T10:12:37.833Z,9.27
2018-05-27T10:15:05.974Z,9.83
2018-05-27T10:17:34.081Z,8.70
2018-05-27T10:20:02.202Z,8.63
2018-05-27T10:22:30.332Z,9.37
2018-05-27T10:24:58.464Z,9.33
2018-05-27T10:27:26.610Z,9.23
2018-05-27T10:29:54.732Z,8.67
2018-05-27T10:32:26.217Z,8.40
2018-05-27T10:34:54.314Z,7.03
2018-05-27T10:37:22.428Z,6.73
2018-05-27T10:39:50.564Z,6.97
2018-05-27T10:42:18.702Z,7.93
2018-05-27T10:44:46.813Z,6.70
2018-05-27T10:47:14.926Z,6.67
2018-05-27T10:49:43.099Z,6.63
2018-05-27T10:52:11.264Z,6.63
2018-05-27T10:54:39.342Z,7.27
2018-05-27T10:57:07.474Z,7.10
2018-05-27T10:59:35.605Z,7.00
2018-05-27T11:02:03.891Z,6.40
2018-05-27T11:04:32.972Z,7.40
2018-05-27T11:07:01.354Z,6.90
2018-05-27T11:09:29.518Z,7.00
2018-05-27T11:11:57.972Z,7.70
2018-05-27T11:14:26.103Z,7.50
2018-05-27T11:16:54.218Z,7.13
2018-05-27T11:19:22.346Z,7.37
2018-05-27T11:21:50.487Z,7.30
2018-05-27T11:24:18.812Z,6.77
2018-05-27T11:26:46.922Z,6.90
2018-05-27T11:29:15.143Z,6.70
2018-05-27T11:31:43.246Z,7.00
2018-05-27T11:34:11.382Z,6.83
2018-05-27T11:36:39.508Z,7.30
2018-05-27T11:39:07.652Z,7.60
2018-05-27T11:41:35.779Z,7.40
2018-05-27T11:44:03.901Z,7.43
2018-05-27T11:46:32.031Z,7.90
2018-05-27T11:49:00.167Z,7.43
2018-05-27T11:51:28.290Z,7.13
2018-05-27T11:53:56.413Z,7.10
2018-05-27T11:56:28.253Z,8.10
2018-05-27T11:58:56.387Z,7.57
2018-05-27T12:01:24.498Z,6.90
2018-05-27T12:03:53.496Z,8.13
2018-05-27T12:06:21.625Z,8.40
2018-05-27T12:08:49.749Z,8.30
2018-05-27T12:11:18.129Z,8.50
2018-05-27T12:13:46.245Z,8.43
2018-05-27T12:16:14.359Z,7.50
2018-05-27T12:18:42.496Z,8.50
2018-05-27T12:21:10.617Z,8.50
2018-05-27T12:23:38.738Z,8.67
2018-05-27T12:26:07.033Z,9.10
2018-05-27T12:28:35.181Z,10.00
2018-05-27T12:31:03.313Z,10.77
2018-05-27T12:33:31.441Z,11.73
2018-05-27T12:35:59.650Z,10.90
2018-05-27T12:38:27.762Z,10.80
2018-05-27T12:40:55.922Z,12.20
2018-05-27T12:43:24.062Z,10.37
2018-05-27T12:45:52.203Z,10.37
2018-05-27T12:48:20.333Z,9.67
2018-05-27T12:50:48.449Z,9.57
2018-05-27T12:53:16.585Z,9.63
2018-05-27T12:55:44.740Z,10.60
2018-05-27T12:58:12.956Z,9.50
2018-05-27T13:00:41.087Z,13.40
2018-05-27T13:03:09.244Z,9.73
2018-05-27T13:05:37.375Z,8.43
2018-05-27T13:08:05.503Z,7.47
2018-05-27T13:10:33.640Z,7.13
2018-05-27T13:13:01.764Z,8.30
2018-05-27T13:15:29.946Z,7.90
2018-05-27T13:17:58.089Z,8.60
2018-05-27T13:20:26.196Z,8.13
2018-05-27T13:22:54.322Z,9.23
2018-05-27T13:25:22.451Z,8.60
2018-05-27T13:27:50.584Z,7.93
2018-05-27T13:30:18.800Z,7.87
2018-05-27T13:32:47.029Z,8.47
2018-05-27T13:35:15.163Z,9.07
2018-05-27T13:37:43.282Z,9.07
2018-05-27T13:40:11.393Z,8.93
2018-05-27T13:42:39.536Z,11.07
2018-05-27T13:45:07.695Z,10.33
2018-05-27T13:47:35.904Z,9.83
2018-05-27T13:50:04.015Z,9.97
2018-05-27T13:52:32.156Z,10.10
2018-05-27T13:55:00.301Z,10.47
2018-05-27T13:57:28.435Z,10.60
2018-05-27T13:59:56.587Z,10.50
2018-05-27T14:02:24.712Z,10.80
2018-05-27T14:04:52.849Z,10.37
2018-05-27T14:07:20.989Z,9.93
2018-05-27T14:09:49.131Z,8.97
2018-05-27T14:12:17.260Z,9.57
2018-05-27T14:14:45.369Z,8.30
2018-05-27T14:17:13.542Z,7.40
2018-05-27T14:19:41.628Z,7.03
2018-05-27T14:22:09.767Z,6.00
2018-05-27T14:24:37.877Z,6.33
2018-05-27T14:27:05.995Z,5.87
2018-05-27T14:29:34.108Z,5.90
2018-05-27T14:32:02.215Z,6.00
2018-05-27T14:34:30.367Z,5.83
2018-05-27T14:36:58.482Z,5.77
2018-05-27T14:39:26.582Z,6.00
2018-05-27T14:41:54.727Z,6.23
2018-05-27T14:44:22.827Z,5.47
2018-05-27T14:46:51.123Z,5.30
2018-05-27T14:49:19.396Z,5.23
2018-05-27T14:51:47.516Z,4.90
2018-05-27T14:54:15.664Z,4.53
2018-05-27T14:56:43.788Z,5.40
2018-05-27T14:59:11.909Z,5.10
2018-05-27T15:01:40.029Z,5.50
2018-05-27T15:04:08.203Z,5.07
2018-05-27T15:06:36.282Z,5.57
2018-05-27T15:09:04.416Z,4.87
2018-05-27T15:11:32.545Z,5.57
2018-05-27T15:14:00.646Z,5.80
2018-05-27T15:16:28.770Z,5.83
2018-05-27T15:18:56.898Z,5.30
2018-05-27T15:21:24.991Z,5.73
2018-05-27T15:23:53.147Z,5.70
2018-05-27T15:26:21.280Z,5.60
2018-05-27T15:28:49.383Z,5.77
2018-05-27T15:31:17.510Z,5.40
2018-05-27T15:33:45.666Z,6.10
2018-05-27T15:36:13.908Z,6.30
2018-05-27T15:38:42.046Z,6.43
2018-05-27T15:41:10.154Z,6.60
2018-05-27T15:43:38.291Z,6.97
2018-05-27T15:46:06.392Z,7.33
2018-05-27T15:48:34.503Z,8.13
2018-05-27T15:51:02.633Z,7.97
2018-05-27T15:53:30.749Z,8.07
2018-05-27T15:55:58.866Z,7.53
2018-05-27T15:58:27.008Z,9.03
2018-05-27T16:00:55.119Z,8.10
2018-05-27T16:03:23.233Z,8.53
2018-05-27T16:05:51.357Z,8.47
2018-05-27T16:08:19.487Z,8.73
2018-05-27T16:10:47.600Z,8.53
2018-05-27T16:13:15.726Z,8.63
2018-05-27T16:15:43.897Z,9.37
2018-05-27T16:18:12.012Z,9.67
2018-05-27T16:20:40.165Z,10.33
2018-05-27T16:23:08.289Z,9.10
2018-05-27T16:25:36.400Z,9.00
2018-05-27T16:28:04.549Z,8.40
2018-05-27T16:30:32.669Z,8.63
2018-05-27T16:33:00.801Z,8.33
2018-05-27T16:35:28.929Z,8.60
2018-05-27T16:37:57.072Z,7.10
2018-05-27T16:40:25.225Z,6.97
2018-05-27T16:42:53.418Z,7.80
2018-05-27T16:45:21.560Z,7.60
2018-05-27T16:47:50.545Z,7.70
2018-05-27T16:50:18.887Z,6.57
2018-05-27T16:52:47.045Z,6.53
2018-05-27T16:55:15.168Z,5.90
2018-05-27T16:57:43.363Z,5.27
2018-05-27T17:00:11.488Z,5.90
2018-05-27T17:02:39.602Z,5.50
2018-05-27T17:05:09.615Z,5.70
2018-05-27T17:07:37.754Z,5.67
2018-05-27T17:10:05.855Z,6.37
2018-05-27T17:12:34.008Z,6.33
2018-05-27T17:15:02.130Z,5.80
2018-05-27T17:17:30.227Z,5.67
2018-05-27T17:19:58.350Z,5.43
2018-05-27T17:22:26.481Z,5.00
2018-05-27T17:24:54.605Z,4.80
2018-05-27T17:27:25.895Z,5.00
2018-05-27T17:29:54.009Z,4.23
2018-05-27T17:32:22.150Z,5.00
2018-05-27T17:34:50.270Z,4.60
2018-05-27T17:37:18.410Z,4.60
2018-05-27T17:39:46.521Z,4.07
2018-05-27T17:42:14.633Z,4.57
2018-05-27T17:44:42.780Z,4.60
2018-05-27T17:47:10.898Z,4.33
2018-05-27T17:49:39.021Z,4.00
2018-05-27T17:52:07.134Z,4.00
2018-05-27T17:54:35.260Z,4.27
2018-05-27T17:57:03.399Z,4.00
2018-05-27T17:59:31.517Z,4.60
2018-05-27T18:01:59.623Z,4.73
2018-05-27T18:04:27.749Z,4.60
2018-05-27T18:06:55.855Z,4.90
2018-05-27T18:09:24.001Z,5.40
2018-05-27T18:11:52.113Z,4.87
2018-05-27T18:14:23.705Z,5.67
2018-05-27T18:16:51.825Z,5.60
2018-05-27T18:19:20.296Z,5.73
2018-05-27T18:21:48.406Z,5.50
2018-05-27T18:24:16.533Z,6.10
2018-05-27T18:26:44.657Z,5.53
2018-05-27T18:29:12.769Z,6.00
2018-05-27T18:31:40.868Z,6.43
2018-05-27T18:34:08.980Z,6.33
2018-05-27T18:36:37.108Z,5.67
2018-05-27T18:39:06.128Z,6.60
2018-05-27T18:41:34.262Z,6.17
2018-05-27T18:44:02.396Z,5.73
2018-05-27T18:46:30.527Z,5.70
2018-05-27T18:48:58.648Z,5.77
2018-05-27T18:51:26.776Z,6.03
2018-05-27T18:53:54.925Z,6.50
2018-05-27T18:56:23.044Z,6.20
2018-05-27T18:58:51.164Z,5.83
2018-05-27T19:01:19.289Z,6.23
2018-05-27T19:03:47.488Z,6.00
2018-05-27T19:06:15.657Z,6.57
2018-05-27T19:08:43.758Z,6.10
2018-05-27T19:11:11.902Z,6.50
2018-05-27T19:13:40.090Z,5.50
2018-05-27T19:16:08.225Z,5.33
2018-05-27T19:18:36.344Z,5.67
2018-05-27T19:21:05.387Z,6.10
2018-05-27T19:23:33.541Z,5.37
2018-05-27T19:26:01.679Z,6.27
2018-05-27T19:28:29.761Z,5.90
2018-05-27T19:31:01.529Z,6.43
2018-05-27T19:33:29.660Z,7.67
2018-05-27T19:35:57.857Z,7.40
2018-05-27T19:38:25.949Z,8.53
2018-05-27T19:40:54.221Z,7.87
2018-05-27T19:43:22.491Z,8.27
2018-05-27T19:45:50.576Z,7.77
2018-05-27T19:48:18.701Z,8.07
2018-05-27T19:50:46.842Z,8.20
2018-05-27T19:53:14.947Z,7.63
2018-05-27T19:55:43.081Z,7.60
2018-05-27T19:58:11.220Z,7.73
2018-05-27T20:00:39.590Z,8.13
2018-05-27T20:03:07.828Z,7.80
2018-05-27T20:05:35.826Z,7.40
2018-05-27T20:08:03.984Z,8.00
2018-05-27T20:10:32.137Z,8.40
2018-05-27T20:13:00.274Z,8.63
2018-05-27T20:15:28.454Z,8.03
2018-05-27T20:17:56.593Z,8.37
2018-05-27T20:20:24.727Z,8.23
2018-05-27T20:22:52.865Z,8.20
2018-05-27T20:25:20.993Z,8.57
2018-05-27T20:27:49.121Z,8.83
2018-05-27T20:30:17.243Z,9.33
2018-05-27T20:32:45.385Z,10.13
2018-05-27T20:35:13.524Z,9.83
2018-05-27T20:37:41.674Z,9.77
2018-05-27T20:40:09.868Z,10.43
2018-05-27T20:42:38.019Z,10.43
2018-05-27T20:45:06.164Z,9.87
2018-05-27T20:47:34.279Z,10.07
2018-05-27T20:50:02.673Z,10.27
2018-05-27T20:52:30.800Z,9.63
2018-05-27T20:54:58.921Z,10.47
2018-05-27T20:57:27.050Z,9.20
2018-05-27T20:59:55.159Z,9.60
2018-05-27T21:02:23.279Z,9.87
2018-05-27T21:04:51.396Z,9.77
2018-05-27T21:07:19.524Z,9.23
2018-05-27T21:09:47.657Z,9.27
2018-05-27T21:12:15.784Z,9.20
2018-05-27T21:14:43.909Z,8.93
2018-05-27T21:17:12.032Z,8.77
2018-05-27T21:19:40.156Z,9.13
2018-05-27T21:22:08.275Z,8.27
2018-05-27T21:24:36.395Z,9.03
2018-05-27T21:27:04.548Z,8.67
2018-05-27T21:29:32.679Z,8.30
2018-05-27T21:32:00.779Z,7.33
2018-05-27T21:34:28.913Z,7.43
2018-05-27T21:36:57.164Z,7.77
2018-05-27T21:39:25.306Z,8.37
2018-05-27T21:41:53.410Z,8.20
2018-05-27T21:44:21.529Z,7.50
2018-05-27T21:46:49.694Z,7.83
2018-05-27T21:49:17.832Z,8.20
2018-05-27T21:51:45.975Z,8.00
2018-05-27T21:54:14.093Z,7.90
2018-05-27T21:56:42.192Z,8.27
2018-05-27T21:59:10.305Z,8.10
2018-05-27T22:01:38.447Z,8.13
2018-05-27T22:04:06.596Z,8.73
2018-05-27T22:06:34.725Z,8.60
2018-05-27T22:09:05.865Z,9.07
2018-05-27T22:11:34.001Z,8.53
2018-05-27T22:14:02.122Z,8.67
2018-05-27T22:16:30.274Z,8.93
2018-05-27T22:18:58.399Z,8.93
2018-05-27T22:21:26.535Z,8.57
2018-05-27T22:23:54.775Z,8.63
2018-05-27T22:26:22.881Z,8.77
2018-05-27T22:28:51.021Z,9.30
2018-05-27T22:31:19.144Z,9.33
2018-05-27T22:33:47.339Z,9.33
2018-05-27T22:36:15.441Z,10.27
2018-05-27T22:38:43.588Z,10.30
2018-05-27T22:41:11.721Z,9.83
2018-05-27T22:43:39.936Z,10.33
2018-05-27T22:46:08.143Z,10.63
2018-05-27T22:48:36.410Z,9.27
2018-05-27T22:51:04.585Z,9.53
2018-05-27T22:53:32.758Z,9.97
2018-05-27T22:56:01.110Z,11.10
2018-05-27T22:58:29.248Z,9.30
2018-05-27T23:00:57.453Z,9.90
2018-05-27T23:03:25.558Z,10.20
2018-05-27T23:05:53.925Z,10.60
2018-05-27T23:08:22.051Z,10.67
2018-05-27T23:10:50.189Z,10.07
2018-05-27T23:13:18.343Z,10.30
2018-05-27T23:15:46.487Z,10.33
2018-05-27T23:18:14.607Z,10.30
2018-05-27T23:20:42.859Z,10.80
2018-05-27T23:23:10.977Z,11.40
2018-05-27T23:25:42.418Z,11.40
2018-05-27T23:28:10.553Z,10.70
2018-05-27T23:30:38.691Z,10.47
2018-05-27T23:33:06.817Z,11.20
2018-05-27T23:35:34.951Z,11.40
2018-05-27T23:38:03.072Z,11.53
2018-05-27T23:40:31.199Z,11.80
2018-05-27T23:42:59.355Z,11.93
2018-05-27T23:45:27.494Z,11.77
2018-05-27T23:47:55.621Z,11.80
2018-05-27T23:50:23.735Z,11.40
2018-05-27T23:52:51.869Z,10.90
2018-05-27T23:55:20.275Z,11.33
2018-05-27T23:57:48.428Z,11.97
